Observation data for Hart on 08/13/2019      Previous  Date       Current Mesonet Observations  Soil Data  Daily Summary Page  Observations in Plain Language
KHRS 130500Z 04020G25KT 24/17 A3002 RMK A01 T02420169  RH  065%=      5-min Rain = 0
KHRS 130505Z 04018G24KT 24/17 A3002 RMK A01 T02400170  RH  067%=      5-min Rain = 0
KHRS 130510Z 04017G26KT 24/17 A3002 RMK A01 T02370171  RH  068%=      5-min Rain = 0
KHRS 130515Z 04015G23KT 24/17 A3002 RMK A01 T02350172  RH  069%=      5-min Rain = 0
KHRS 130520Z 04017G24KT 23/17 A3002 RMK A01 T02340172  RH  070%=      5-min Rain = 0
KHRS 130525Z 05016G22KT 23/17 A3002 RMK A01 T02330172  RH  070%=      5-min Rain = 0
KHRS 130530Z 05016G21KT 23/17 A3002 RMK A01 T02320171  RH  070%=      5-min Rain = 0
KHRS 130535Z 05018G25KT 23/17 A3002 RMK A01 T02310171  RH  071%=      5-min Rain = 0
KHRS 130540Z 05018G23KT 23/17 A3002 RMK A01 T02290172  RH  072%=      5-min Rain = 0
KHRS 130545Z 05016KT 23/17 A3002 RMK A01 T02270172  RH  073%=      5-min Rain = 0
KHRS 130550Z 05017G24KT 23/17 A3002 RMK A01 T02260173  RH  074%=      5-min Rain = 0
KHRS 130555Z 05016G24KT 23/17 A3002 RMK A01 T02250173  RH  075%=      5-min Rain = 0
KHRS 130600Z 05016G21KT 22/17 A3002 RMK A01 T02240173  RH  075%=      5-min Rain = 0
KHRS 130605Z 05016G22KT 22/17 A3003 RMK A01 T02240172  RH  074%=      5-min Rain = 0
KHRS 130610Z 06017G23KT 22/17 A3002 RMK A01 T02240171  RH  074%=      5-min Rain = 0
KHRS 130615Z 06016G22KT 22/17 A3002 RMK A01 T02240171  RH  074%=      5-min Rain = 0
KHRS 130620Z 06016G23KT 22/17 A3002 RMK A01 T02240171  RH  073%=      5-min Rain = 0
KHRS 130625Z 06016G22KT 22/17 A3002 RMK A01 T02240171  RH  074%=      5-min Rain = 0
KHRS 130630Z 07015G21KT 22/17 A3002 RMK A01 T02240171  RH  074%=      5-min Rain = 0
KHRS 130635Z 07016G22KT 22/17 A3002 RMK A01 T02240171  RH  073%=      5-min Rain = 0
KHRS 130640Z 07016G21KT 22/17 A3002 RMK A01 T02240171  RH  074%=      5-min Rain = 0
KHRS 130645Z 07015G22KT 22/17 A3002 RMK A01 T02230171  RH  074%=      5-min Rain = 0
KHRS 130650Z 06013KT 22/17 A3002 RMK A01 T02210172  RH  075%=      5-min Rain = 0
KHRS 130655Z 06015KT 22/17 A3003 RMK A01 T02210172  RH  076%=      5-min Rain = 0
KHRS 130700Z 06014G20KT 22/17 A3003 RMK A01 T02210172  RH  076%=      5-min Rain = 0
KHRS 130705Z 06013G18KT 22/17 A3003 RMK A01 T02200172  RH  076%=      5-min Rain = 0
KHRS 130710Z 06014KT 22/17 A3003 RMK A01 T02190172  RH  076%=      5-min Rain = 0
KHRS 130715Z 06013G18KT 22/17 A3003 RMK A01 T02190172  RH  077%=      5-min Rain = 0
KHRS 130720Z 07014G22KT 22/17 A3003 RMK A01 T02180173  RH  077%=      5-min Rain = 0
KHRS 130725Z 07014G19KT 22/17 A3003 RMK A01 T02170173  RH  078%=      5-min Rain = 0
KHRS 130730Z 08012G18KT 22/17 A3002 RMK A01 T02160173  RH  078%=      5-min Rain = 0
KHRS 130735Z 08012G18KT 22/17 A3002 RMK A01 T02150173  RH  079%=      5-min Rain = 0
KHRS 130740Z 08011G16KT 22/17 A3002 RMK A01 T02150173  RH  079%=      5-min Rain = 0
KHRS 130745Z 08013G18KT 22/17 A3002 RMK A01 T02150173  RH  079%=      5-min Rain = 0
KHRS 130750Z 08014G22KT 22/17 A3002 RMK A01 T02160173  RH  079%=      5-min Rain = 0
KHRS 130755Z 08012KT 21/17 A3002 RMK A01 T02140174  RH  079%=      5-min Rain = 0
KHRS 130800Z 08013KT 21/17 A3002 RMK A01 T02140174  RH  080%=      5-min Rain = 0
KHRS 130805Z 08012G17KT 21/17 A3002 RMK A01 T02130174  RH  080%=      5-min Rain = 0
KHRS 130810Z 08011G16KT 21/17 A3002 RMK A01 T02120174  RH  081%=      5-min Rain = 0
KHRS 130815Z 08012G17KT 21/17 A3002 RMK A01 T02120174  RH  081%=      5-min Rain = 0
KHRS 130820Z 08011KT 21/18 A3002 RMK A01 T02120175  RH  081%=      5-min Rain = 0
KHRS 130825Z 08011G16KT 21/18 A3003 RMK A01 T02110175  RH  082%=      5-min Rain = 0
KHRS 130830Z 07010KT 21/18 A3003 RMK A01 T02100175  RH  082%=      5-min Rain = 0
KHRS 130835Z 07010KT 21/18 A3003 RMK A01 T02090175  RH  083%=      5-min Rain = 0
KHRS 130840Z 07010KT 21/18 A3003 RMK A01 T02090175  RH  083%=      5-min Rain = 0
KHRS 130845Z 07010KT 21/18 A3003 RMK A01 T02090175  RH  083%=      5-min Rain = 0
KHRS 130850Z 07010KT 21/18 A3003 RMK A01 T02080175  RH  084%=      5-min Rain = 0
KHRS 130855Z 07011G16KT 21/18 A3004 RMK A01 T02080175  RH  084%=      5-min Rain = 0
KHRS 130900Z 07011KT 21/18 A3004 RMK A01 T02080175  RH  083%=      5-min Rain = 0
KHRS 130905Z 07011G16KT 21/18 A3004 RMK A01 T02080175  RH  084%=      5-min Rain = 0
KHRS 130910Z 07010KT 21/18 A3004 RMK A01 T02080175  RH  084%=      5-min Rain = 0
KHRS 130915Z 07012KT 21/18 A3005 RMK A01 T02070175  RH  084%=      5-min Rain = 0
KHRS 130920Z 07011G16KT 21/18 A3005 RMK A01 T02080175  RH  084%=      5-min Rain = 0
KHRS 130925Z 07011KT 21/18 A3005 RMK A01 T02070175  RH  084%=      5-min Rain = 0
KHRS 130930Z 07010G15KT 21/18 A3005 RMK A01 T02070175  RH  084%=      5-min Rain = 0
KHRS 130935Z 08010KT 21/18 A3005 RMK A01 T02060175  RH  085%=      5-min Rain = 0
KHRS 130940Z 07010KT 21/18 A3005 RMK A01 T02050175  RH  085%=      5-min Rain = 0
KHRS 130945Z 07010G15KT 21/18 A3006 RMK A01 T02050176  RH  085%=      5-min Rain = 0
KHRS 130950Z 07010KT 21/18 A3006 RMK A01 T02050176  RH  086%=      5-min Rain = 0
KHRS 130955Z 07009KT 20/18 A3006 RMK A01 T02040176  RH  086%=      5-min Rain = 0
KHRS 131000Z 07007KT 20/18 A3006 RMK A01 T02030176  RH  086%=      5-min Rain = 0
KHRS 131005Z 07008KT 20/18 A3007 RMK A01 T02030176  RH  087%=      5-min Rain = 0
KHRS 131010Z 06006KT 20/18 A3007 RMK A01 T02030176  RH  087%=      5-min Rain = 0
KHRS 131015Z 05006KT 20/18 A3007 RMK A01 T02020175  RH  087%=      5-min Rain = 0
KHRS 131020Z 05006KT 20/18 A3007 RMK A01 T02010175  RH  087%=      5-min Rain = 0
KHRS 131025Z 06006KT 20/18 A3007 RMK A01 T02000175  RH  088%=      5-min Rain = 0
KHRS 131030Z 05005KT 20/18 A3007 RMK A01 T01990175  RH  088%=      5-min Rain = 0
KHRS 131035Z 05005KT 20/18 A3007 RMK A01 T01980175  RH  089%=      5-min Rain = 0
KHRS 131040Z 05006KT 20/17 A3008 RMK A01 T01970174  RH  089%=      5-min Rain = 0
KHRS 131045Z 05006KT 20/18 A3007 RMK A01 T01960175  RH  089%=      5-min Rain = 0
KHRS 131050Z 06006KT 20/17 A3007 RMK A01 T01950174  RH  090%=      5-min Rain = 0
KHRS 131055Z 06006KT 20/17 A3007 RMK A01 T01950174  RH  090%=      5-min Rain = 0
KHRS 131100Z 06005KT 19/17 A3007 RMK A01 T01940174  RH  090%=      5-min Rain = 0
KHRS 131105Z 04005KT 19/17 A3007 RMK A01 T01920173  RH  091%=      5-min Rain = 0
KHRS 131110Z 04004KT 19/17 A3007 RMK A01 T01910172  RH  091%=      5-min Rain = 0
KHRS 131115Z 05004KT 19/17 A3007 RMK A01 T01900172  RH  091%=      5-min Rain = 0
KHRS 131120Z 04005KT 19/17 A3007 RMK A01 T01900172  RH  091%=      5-min Rain = 0
KHRS 131125Z 04005KT 19/17 A3008 RMK A01 T01900173  RH  092%=      5-min Rain = 0
KHRS 131130Z 05004KT 19/17 A3008 RMK A01 T01900173  RH  092%=      5-min Rain = 0
KHRS 131135Z 06005KT 19/17 A3008 RMK A01 T01890172  RH  092%=      5-min Rain = 0
KHRS 131140Z 05005KT 19/17 A3008 RMK A01 T01890172  RH  092%=      5-min Rain = 0
KHRS 131145Z 06005KT 19/17 A3008 RMK A01 T01880172  RH  093%=      5-min Rain = 0
KHRS 131150Z 06005KT 19/17 A3008 RMK A01 T01880172  RH  093%=      5-min Rain = 0
KHRS 131155Z 06004KT 19/17 A3009 RMK A01 T01870171  RH  093%=      5-min Rain = 0
KHRS 131200Z 05004KT 19/17 A3009 RMK A01 T01860171  RH  093%=      5-min Rain = 0
KHRS 131205Z 05004KT 19/17 A3009 RMK A01 T01850170  RH  093%=      5-min Rain = 0
KHRS 131210Z 04004KT 19/17 A3009 RMK A01 T01850170  RH  093%=      5-min Rain = 0
KHRS 131215Z 04004KT 18/17 A3009 RMK A01 T01830169  RH  093%=      5-min Rain = 0
KHRS 131220Z 04004KT 18/17 A3009 RMK A01 T01820168  RH  093%=      5-min Rain = 0
KHRS 131225Z 03005KT 18/17 A3009 RMK A01 T01810167  RH  093%=      5-min Rain = 0
KHRS 131230Z 03005KT 18/17 A301 RMK A01 T01820168  RH  094%=      5-min Rain = 0
KHRS 131235Z 02005KT 18/17 A301 RMK A01 T01830169  RH  094%=      5-min Rain = 0
KHRS 131240Z 01005KT 19/17 A301 RMK A01 T01850171  RH  094%=      5-min Rain = 0
KHRS 131245Z 00005KT 19/17 A301 RMK A01 T01870173  RH  094%=      5-min Rain = 0
KHRS 131250Z 36005KT 19/18 A301 RMK A01 T01900175  RH  093%=      5-min Rain = 0
KHRS 131255Z 00005KT 19/18 A301 RMK A01 T01920176  RH  092%=      5-min Rain = 0
KHRS 131300Z 00004KT 19/18 A301 RMK A01 T01940177  RH  092%=      5-min Rain = 0
KHRS 131305Z 01004KT 20/18 A301 RMK A01 T01980179  RH  091%=      5-min Rain = 0
KHRS 131310Z 00004KT 20/18 A3011 RMK A01 T02010181  RH  090%=      5-min Rain = 0
KHRS 131315Z 01004KT 21/18 A3011 RMK A01 T02050182  RH  089%=      5-min Rain = 0
KHRS 131320Z 02004KT 21/18 A3011 RMK A01 T02080182  RH  087%=      5-min Rain = 0
KHRS 131325Z 03004KT 21/18 A3011 RMK A01 T02120183  RH  086%=      5-min Rain = 0
KHRS 131330Z 03004KT 21/18 A3011 RMK A01 T02140183  RH  084%=      5-min Rain = 0
KHRS 131335Z 03005KT 22/18 A3011 RMK A01 T02170183  RH  083%=      5-min Rain = 0
KHRS 131340Z 05005KT 22/18 A3011 RMK A01 T02180184  RH  083%=      5-min Rain = 0
KHRS 131345Z 05006KT 22/18 A3011 RMK A01 T02200184  RH  082%=      5-min Rain = 0
KHRS 131350Z 06006KT 22/19 A3012 RMK A01 T02230185  RH  081%=      5-min Rain = 0
KHRS 131355Z 06007KT 23/18 A3012 RMK A01 T02250184  RH  080%=      5-min Rain = 0
KHRS 131400Z 06007KT 23/19 A3012 RMK A01 T02270185  RH  079%=      5-min Rain = 0
KHRS 131405Z 06007KT 23/18 A3012 RMK A01 T02290184  RH  078%=      5-min Rain = 0
KHRS 131410Z 08007KT 23/18 A3012 RMK A01 T02320184  RH  077%=      5-min Rain = 0
KHRS 131415Z 07007KT 23/19 A3012 RMK A01 T02340185  RH  076%=      5-min Rain = 0
KHRS 131420Z 08009KT 24/18 A3012 RMK A01 T02370183  RH  074%=      5-min Rain = 0
KHRS 131425Z 07009KT 24/18 A3012 RMK A01 T02370183  RH  073%=      5-min Rain = 0
KHRS 131430Z 07009KT 24/18 A3012 RMK A01 T02390184  RH  073%=      5-min Rain = 0
KHRS 131435Z 08009KT 24/18 A3012 RMK A01 T02410183  RH  072%=      5-min Rain = 0
KHRS 131440Z 09008KT 24/18 A3012 RMK A01 T02440184  RH  071%=      5-min Rain = 0
KHRS 131445Z 09009G14KT 25/18 A3012 RMK A01 T02480183  RH  069%=      5-min Rain = 0
KHRS 131450Z 09010KT 25/18 A3012 RMK A01 T02490182  RH  068%=      5-min Rain = 0
KHRS 131455Z 09009KT 25/18 A3012 RMK A01 T02500182  RH  068%=      5-min Rain = 0
KHRS 131500Z 09010KT 25/18 A3012 RMK A01 T02530182  RH  067%=      5-min Rain = 0
KHRS 131505Z 08009KT 26/18 A3012 RMK A01 T02560183  RH  066%=      5-min Rain = 0
KHRS 131510Z 09009KT 26/18 A3013 RMK A01 T02580182  RH  065%=      5-min Rain = 0
KHRS 131515Z 09008KT 26/18 A3013 RMK A01 T02600184  RH  065%=      5-min Rain = 0
KHRS 131520Z 08009KT 26/18 A3013 RMK A01 T02610183  RH  064%=      5-min Rain = 0
KHRS 131525Z 08010KT 26/18 A3013 RMK A01 T02590182  RH  064%=      5-min Rain = 0
KHRS 131530Z 09010KT 26/18 A3013 RMK A01 T02610182  RH  063%=      5-min Rain = 0
KHRS 131535Z 09009KT 26/18 A3013 RMK A01 T02630181  RH  062%=      5-min Rain = 0
KHRS 131540Z 10010KT 27/18 A3013 RMK A01 T02650182  RH  062%=      5-min Rain = 0
KHRS 131545Z 09010KT 27/18 A3013 RMK A01 T02680182  RH  061%=      5-min Rain = 0
KHRS 131550Z 08009KT 27/18 A3013 RMK A01 T02700183  RH  060%=      5-min Rain = 0
KHRS 131555Z 08008G13KT 27/18 A3013 RMK A01 T02700182  RH  060%=      5-min Rain = 0
KHRS 131600Z 10008KT 27/18 A3013 RMK A01 T02720180  RH  059%=      5-min Rain = 0
KHRS 131605Z 09008KT 27/18 A3014 RMK A01 T02740184  RH  060%=      5-min Rain = 0
KHRS 131610Z 06007KT 28/19 A3014 RMK A01 T02750186  RH  060%=      5-min Rain = 0
KHRS 131615Z 09006KT 28/18 A3014 RMK A01 T02760182  RH  058%=      5-min Rain = 0
KHRS 131620Z 08008KT 28/18 A3014 RMK A01 T02760182  RH  058%=      5-min Rain = 0
KHRS 131625Z 09008KT 28/18 A3014 RMK A01 T02770182  RH  058%=      5-min Rain = 0
KHRS 131630Z 08007KT 28/18 A3014 RMK A01 T02790184  RH  057%=      5-min Rain = 0
KHRS 131635Z 08007KT 28/18 A3014 RMK A01 T02830184  RH  056%=      5-min Rain = 0
KHRS 131640Z 08008KT 28/19 A3014 RMK A01 T02840185  RH  056%=      5-min Rain = 0
KHRS 131645Z 08008G14KT 28/18 A3014 RMK A01 T02840182  RH  055%=      5-min Rain = 0
KHRS 131650Z 08008G13KT 29/18 A3014 RMK A01 T02860181  RH  054%=      5-min Rain = 0
KHRS 131655Z 08007KT 29/18 A3014 RMK A01 T02860180  RH  054%=      5-min Rain = 0
KHRS 131700Z 09010KT 29/18 A3014 RMK A01 T02890184  RH  054%=      5-min Rain = 0
KHRS 131705Z 09008KT 29/18 A3015 RMK A01 T02890182  RH  054%=      5-min Rain = 0
KHRS 131710Z 08010KT 29/18 A3015 RMK A01 T02920182  RH  053%=      5-min Rain = 0
KHRS 131715Z 09008KT 29/18 A3015 RMK A01 T02890180  RH  053%=      5-min Rain = 0
KHRS 131720Z 09008KT 29/18 A3014 RMK A01 T02930182  RH  053%=      5-min Rain = 0
KHRS 131725Z 08006G11KT 29/18 A3014 RMK A01 T02930179  RH  051%=      5-min Rain = 0
KHRS 131730Z 09009KT 30/18 A3014 RMK A01 T02950180  RH  051%=      5-min Rain = 0
KHRS 131735Z 06008G16KT 30/18 A3014 RMK A01 T02950182  RH  052%=      5-min Rain = 0
KHRS 131740Z 06007G13KT 30/18 A3014 RMK A01 T02960183  RH  052%=      5-min Rain = 0
KHRS 131745Z 09006KT 30/18 A3014 RMK A01 T02970179  RH  050%=      5-min Rain = 0
KHRS 131750Z 08008G13KT 30/18 A3014 RMK A01 T03010182  RH  050%=      5-min Rain = 0
KHRS 131755Z 08008G14KT 30/19 A3014 RMK A01 T03030185  RH  051%=      5-min Rain = 0
KHRS 131800Z 05009G14KT 30/18 A3014 RMK A01 T03000181  RH  050%=      5-min Rain = 0
KHRS 131805Z 06010G15KT 30/18 A3014 RMK A01 T02990178  RH  049%=      5-min Rain = 0
KHRS 131810Z 08009G14KT 30/18 A3014 RMK A01 T03010178  RH  049%=      5-min Rain = 0
KHRS 131815Z 07011KT 30/18 A3014 RMK A01 T03030180  RH  049%=      5-min Rain = 0
KHRS 131820Z 08008KT 30/18 A3014 RMK A01 T03030176  RH  048%=      5-min Rain = 0
KHRS 131825Z 08008G13KT 30/17 A3014 RMK A01 T03040172  RH  046%=      5-min Rain = 0
KHRS 131830Z 08012G17KT 30/17 A3013 RMK A01 T03030173  RH  047%=      5-min Rain = 0
KHRS 131835Z 08012KT 31/18 A3013 RMK A01 T03050176  RH  047%=      5-min Rain = 0
KHRS 131840Z 07009G17KT 31/18 A3013 RMK A01 T03080175  RH  046%=      5-min Rain = 0
KHRS 131845Z 05011KT 31/17 A3013 RMK A01 T03080174  RH  046%=      5-min Rain = 0
KHRS 131850Z 07008KT 31/17 A3013 RMK A01 T03080174  RH  046%=      5-min Rain = 0
KHRS 131855Z 08010G16KT 32/17 A3013 RMK A01 T03150171  RH  043%=      5-min Rain = 0
KHRS 131900Z 06009KT 31/17 A3013 RMK A01 T03130174  RH  045%=      5-min Rain = 0
KHRS 131905Z 07009G15KT 31/17 A3013 RMK A01 T03130174  RH  045%=      5-min Rain = 0
KHRS 131910Z 06011G17KT 31/17 A3013 RMK A01 T03120173  RH  045%=      5-min Rain = 0
KHRS 131915Z 06008G13KT 31/17 A3013 RMK A01 T03130172  RH  044%=      5-min Rain = 0
KHRS 131920Z 07009G14KT 31/17 A3013 RMK A01 T03110174  RH  045%=      5-min Rain = 0
KHRS 131925Z 06009G17KT 31/17 A3012 RMK A01 T03140171  RH  043%=      5-min Rain = 0
KHRS 131930Z 05010KT 31/17 A3012 RMK A01 T03140172  RH  044%=      5-min Rain = 0
KHRS 131935Z 08010KT 32/17 A3012 RMK A01 T03170172  RH  043%=      5-min Rain = 0
KHRS 131940Z 09006G12KT 32/17 A3012 RMK A01 T03210169  RH  041%=      5-min Rain = 0
KHRS 131945Z 05008G14KT 32/17 A3012 RMK A01 T03220174  RH  042%=      5-min Rain = 0
KHRS 131950Z 06008G13KT 32/17 A3012 RMK A01 T03190169  RH  042%=      5-min Rain = 0
KHRS 131955Z 06007G14KT 32/17 A3012 RMK A01 T03170167  RH  042%=      5-min Rain = 0
KHRS 132000Z 08007G12KT 32/17 A3012 RMK A01 T03220172  RH  042%=      5-min Rain = 0
KHRS 132005Z 06008KT 32/17 A3012 RMK A01 T03220170  RH  041%=      5-min Rain = 0
KHRS 132010Z 07009KT 32/17 A3012 RMK A01 T03210170  RH  041%=      5-min Rain = 0
KHRS 132015Z 10006KT 32/16 A3012 RMK A01 T03210164  RH  040%=      5-min Rain = 0
KHRS 132020Z 08008G15KT 33/17 A3011 RMK A01 T03270169  RH  040%=      5-min Rain = 0
KHRS 132025Z 08009G15KT 33/17 A3011 RMK A01 T03250172  RH  041%=      5-min Rain = 0
KHRS 132030Z 10007G12KT 33/16 A3011 RMK A01 T03260162  RH  038%=      5-min Rain = 0
KHRS 132035Z 07008G15KT 33/17 A3011 RMK A01 T03270173  RH  041%=      5-min Rain = 0
KHRS 132040Z 09010G16KT 33/17 A3011 RMK A01 T03290168  RH  039%=      5-min Rain = 0
KHRS 132045Z 08009KT 32/16 A3011 RMK A01 T03210163  RH  040%=      5-min Rain = 0
KHRS 132050Z 09006G11KT 32/16 A3011 RMK A01 T03240160  RH  038%=      5-min Rain = 0
KHRS 132055Z 08010G17KT 33/17 A301 RMK A01 T03260167  RH  039%=      5-min Rain = 0
KHRS 132100Z 06008G15KT 33/17 A301 RMK A01 T03260165  RH  039%=      5-min Rain = 0
KHRS 132105Z 08008G13KT 33/16 A301 RMK A01 T03260161  RH  038%=      5-min Rain = 0
KHRS 132110Z 06005KT 33/16 A301 RMK A01 T03250159  RH  038%=      5-min Rain = 0
KHRS 132115Z 08009G14KT 33/16 A301 RMK A01 T03280162  RH  038%=      5-min Rain = 0
KHRS 132120Z 07009G14KT 33/17 A301 RMK A01 T03250168  RH  040%=      5-min Rain = 0
KHRS 132125Z 08008KT 32/17 A3009 RMK A01 T03200165  RH  040%=      5-min Rain = 0
KHRS 132130Z 06006KT 33/16 A3009 RMK A01 T03280160  RH  037%=      5-min Rain = 0
KHRS 132135Z 07009KT 33/16 A3009 RMK A01 T03270161  RH  038%=      5-min Rain = 0
KHRS 132140Z 08004KT 33/15 A3009 RMK A01 T03270154  RH  036%=      5-min Rain = 0
KHRS 132145Z 07010G16KT 33/16 A3009 RMK A01 T03280163  RH  038%=      5-min Rain = 0
KHRS 132150Z 08008KT 32/16 A3009 RMK A01 T03220159  RH  038%=      5-min Rain = 0
KHRS 132155Z 09007KT 32/16 A3008 RMK A01 T03180155  RH  038%=      5-min Rain = 0
KHRS 132200Z 11009G15KT 33/15 A3008 RMK A01 T03260149  RH  035%=      5-min Rain = 0
KHRS 132205Z 09006KT 33/15 A3008 RMK A01 T03300154  RH  036%=      5-min Rain = 0
KHRS 132210Z 10007G17KT 34/15 A3008 RMK A01 T03350150  RH  034%=      5-min Rain = 0
KHRS 132215Z 08011KT 33/16 A3008 RMK A01 T03310160  RH  037%=      5-min Rain = 0
KHRS 132220Z 09008KT 32/16 A3008 RMK A01 T03180156  RH  039%=      5-min Rain = 0
KHRS 132225Z 08007G14KT 32/16 A3008 RMK A01 T03230160  RH  038%=      5-min Rain = 0
KHRS 132230Z 09008KT 33/16 A3008 RMK A01 T03260156  RH  037%=      5-min Rain = 0
KHRS 132235Z 11009G16KT 33/16 A3008 RMK A01 T03320157  RH  036%=      5-min Rain = 0
KHRS 132240Z 10010G16KT 33/16 A3008 RMK A01 T03290157  RH  036%=      5-min Rain = 0
KHRS 132245Z 11009KT 33/16 A3008 RMK A01 T03270157  RH  037%=      5-min Rain = 0
KHRS 132250Z 13011KT 33/15 A3008 RMK A01 T03310154  RH  035%=      5-min Rain = 0
KHRS 132255Z 12008G13KT 33/15 A3008 RMK A01 T03250154  RH  037%=      5-min Rain = 0
KHRS 132300Z 10008KT 32/16 A3008 RMK A01 T03230162  RH  039%=      5-min Rain = 0
KHRS 132305Z 12008G13KT 33/16 A3008 RMK A01 T03280155  RH  036%=      5-min Rain = 0
KHRS 132310Z 13011G16KT 33/15 A3008 RMK A01 T03320153  RH  035%=      5-min Rain = 0
KHRS 132315Z 13011KT 33/15 A3008 RMK A01 T03300151  RH  035%=      5-min Rain = 0
KHRS 132320Z 13010KT 33/15 A3008 RMK A01 T03300152  RH  035%=      5-min Rain = 0
KHRS 132325Z 13010KT 33/15 A3008 RMK A01 T03280152  RH  035%=      5-min Rain = 0
KHRS 132330Z 15008KT 33/15 A3008 RMK A01 T03280149  RH  035%=      5-min Rain = 0
KHRS 132335Z 12010KT 33/15 A3009 RMK A01 T03260150  RH  035%=      5-min Rain = 0
KHRS 132340Z 11011KT 32/15 A3009 RMK A01 T03240153  RH  037%=      5-min Rain = 0
KHRS 132345Z 11010KT 32/15 A3008 RMK A01 T03240153  RH  036%=      5-min Rain = 0
KHRS 132350Z 09009KT 32/16 A3008 RMK A01 T03200159  RH  039%=      5-min Rain = 0
KHRS 132355Z 10013KT 32/16 A3008 RMK A01 T03160155  RH  039%=      5-min Rain = 0
KHRS 140000Z 11011KT 31/16 A3008 RMK A01 T03140155  RH  039%=      5-min Rain = 0
KHRS 140005Z 12010KT 32/15 A3008 RMK A01 T03170152  RH  038%=      5-min Rain = 0
KHRS 140010Z 12008KT 32/15 A3008 RMK A01 T03150151  RH  038%=      5-min Rain = 0
KHRS 140015Z 11009G14KT 31/15 A3008 RMK A01 T03120153  RH  039%=      5-min Rain = 0
KHRS 140020Z 11010G15KT 31/15 A3008 RMK A01 T03100149  RH  038%=      5-min Rain = 0
KHRS 140025Z 12009KT 31/15 A3008 RMK A01 T03110147  RH  038%=      5-min Rain = 0
KHRS 140030Z 12009KT 31/15 A3009 RMK A01 T03120145  RH  037%=      5-min Rain = 0
KHRS 140035Z 12011KT 31/15 A3009 RMK A01 T03110146  RH  037%=      5-min Rain = 0
KHRS 140040Z 12009KT 31/15 A3009 RMK A01 T03100147  RH  038%=      5-min Rain = 0
KHRS 140045Z 12007KT 31/15 A3009 RMK A01 T03080152  RH  040%=      5-min Rain = 0
KHRS 140050Z 12009KT 31/15 A3009 RMK A01 T03050150  RH  040%=      5-min Rain = 0
KHRS 140055Z 11009KT 30/15 A3009 RMK A01 T03040150  RH  040%=      5-min Rain = 0
KHRS 140100Z 11009KT 30/15 A3009 RMK A01 T03010151  RH  041%=      5-min Rain = 0
KHRS 140105Z 11008KT 30/15 A3009 RMK A01 T02990153  RH  042%=      5-min Rain = 0
KHRS 140110Z 11009KT 30/16 A301 RMK A01 T02950156  RH  044%=      5-min Rain = 0
KHRS 140115Z 12010KT 29/16 A301 RMK A01 T02940156  RH  044%=      5-min Rain = 0
KHRS 140120Z 11008KT 29/16 A3009 RMK A01 T02920157  RH  045%=      5-min Rain = 0
KHRS 140125Z 12008KT 29/16 A301 RMK A01 T02890158  RH  046%=      5-min Rain = 0
KHRS 140130Z 11008KT 29/16 A301 RMK A01 T02860159  RH  047%=      5-min Rain = 0
KHRS 140135Z 11008KT 28/16 A301 RMK A01 T02830160  RH  048%=      5-min Rain = 0
KHRS 140140Z 11007KT 28/16 A3011 RMK A01 T02790161  RH  049%=      5-min Rain = 0
KHRS 140145Z 11007KT 28/16 A3011 RMK A01 T02760161  RH  051%=      5-min Rain = 0
KHRS 140150Z 11007KT 27/16 A3011 RMK A01 T02710163  RH  053%=      5-min Rain = 0
KHRS 140155Z 11007KT 27/16 A3012 RMK A01 T02680163  RH  054%=      5-min Rain = 0
KHRS 140200Z 12007KT 27/16 A3012 RMK A01 T02650162  RH  054%=      5-min Rain = 0
KHRS 140205Z 11006KT 26/16 A3012 RMK A01 T02640164  RH  056%=      5-min Rain = 0
KHRS 140210Z 11006KT 26/16 A3012 RMK A01 T02600164  RH  057%=      5-min Rain = 0
KHRS 140215Z 11007KT 26/16 A3013 RMK A01 T02580163  RH  057%=      5-min Rain = 0
KHRS 140220Z 11007KT 26/17 A3013 RMK A01 T02560165  RH  059%=      5-min Rain = 0
KHRS 140225Z 10006KT 25/17 A3013 RMK A01 T02530167  RH  060%=      5-min Rain = 0
KHRS 140230Z 10007KT 25/17 A3013 RMK A01 T02480167  RH  062%=      5-min Rain = 0
KHRS 140235Z 10006KT 24/17 A3013 RMK A01 T02440167  RH  064%=      5-min Rain = 0
KHRS 140240Z 10006KT 24/17 A3014 RMK A01 T02410167  RH  065%=      5-min Rain = 0
KHRS 140245Z 10005KT 24/17 A3014 RMK A01 T02390167  RH  065%=      5-min Rain = 0
KHRS 140250Z 10004KT 24/17 A3015 RMK A01 T02370168  RH  067%=      5-min Rain = 0
KHRS 140255Z 10005KT 24/17 A3015 RMK A01 T02350169  RH  068%=      5-min Rain = 0
KHRS 140300Z 10006KT 23/17 A3015 RMK A01 T02340169  RH  068%=      5-min Rain = 0
KHRS 140305Z 10007KT 23/17 A3015 RMK A01 T02340167  RH  068%=      5-min Rain = 0
KHRS 140310Z 10008KT 24/17 A3015 RMK A01 T02360166  RH  066%=      5-min Rain = 0
KHRS 140315Z 10008KT 24/17 A3015 RMK A01 T02400166  RH  065%=      5-min Rain = 0
KHRS 140320Z 10007KT 24/17 A3015 RMK A01 T02410167  RH  064%=      5-min Rain = 0
KHRS 140325Z 10007KT 24/17 A3015 RMK A01 T02400167  RH  065%=      5-min Rain = 0
KHRS 140330Z 09007KT 24/17 A3016 RMK A01 T02390168  RH  066%=      5-min Rain = 0
KHRS 140335Z 08007KT 24/17 A3016 RMK A01 T02370169  RH  067%=      5-min Rain = 0
KHRS 140340Z 08007KT 24/17 A3017 RMK A01 T02350170  RH  068%=      5-min Rain = 0
KHRS 140345Z 08007KT 23/17 A3017 RMK A01 T02330170  RH  069%=      5-min Rain = 0
KHRS 140350Z 08007KT 23/17 A3017 RMK A01 T02320169  RH  069%=      5-min Rain = 0
KHRS 140355Z 09007KT 23/17 A3018 RMK A01 T02310170  RH  070%=      5-min Rain = 0
KHRS 140400Z 10006KT 23/17 A3017 RMK A01 T02310170  RH  070%=      5-min Rain = 0
KHRS 140405Z 09007KT 23/17 A3018 RMK A01 T02300171  RH  071%=      5-min Rain = 0
KHRS 140410Z 10006KT 23/17 A3018 RMK A01 T02280170  RH  072%=      5-min Rain = 0
KHRS 140415Z 09006KT 23/17 A3018 RMK A01 T02260170  RH  073%=      5-min Rain = 0
KHRS 140420Z 10006KT 22/17 A3017 RMK A01 T02230170  RH  074%=      5-min Rain = 0
KHRS 140425Z 10006KT 22/17 A3017 RMK A01 T02210169  RH  074%=      5-min Rain = 0
KHRS 140430Z 09006KT 22/17 A3017 RMK A01 T02210170  RH  075%=      5-min Rain = 0
KHRS 140435Z 09006KT 22/17 A3017 RMK A01 T02210170  RH  075%=      5-min Rain = 0
KHRS 140440Z 10007KT 22/17 A3017 RMK A01 T02200170  RH  075%=      5-min Rain = 0
KHRS 140445Z 10007KT 22/17 A3017 RMK A01 T02200170  RH  075%=      5-min Rain = 0
KHRS 140450Z 09006KT 22/17 A3017 RMK A01 T02190170  RH  076%=      5-min Rain = 0
KHRS 140455Z 09007KT 22/17 A3017 RMK A01 T02160170  RH  077%=      5-min Rain = 0

Page generated in 0.0102 seconds.